Accueil
METAR-TAF:

METAR-TAF

Aéroports :

Le Luc, France

latitude: 43-23N, longitude: 006-23E, altitude: 80 m

Observation

Le bulletin a été fait il y a 29 minutes, à 11:30 UTC
Vent 8 kt de sud-est, variant entre est/sud-est et sud
Température 16°C
Humidité 42%
Pression 1015 hPa
Visibilité 10 km ou plus

METAR: LFMC 181130Z AUTO 14008KT 110V190 9999 ////// 16/03 Q1015

Heure: 13:59 (11:59 UTC)


TAF: absent

Observations et prévisions météorologiques de plus de 4000 aéroports (messages METAR et TAF).

Les stations disponibles sont représentées par des disques jaunes et rouges sur la carte.

Passer la souris dessus pour voir le nom de la station.

Cliquer dessus pour voir les observations et prévisions météorologiques.

Pour changer de carte: cliquez sur les boutons verts avec une croix noire pour zoomer, sur le bouton vert avec un tiret pour effectuer un zoom arrière, ou sur les flèches vertes pour les cartes adjacentes.


METAR-TAF: